Time;durP1;ratioP1;P1;durP2;ratioP2;P2;SDS_P1;SDS_P2;PMS_P1;PMS_P2;Temp;Humidity;BMP_temperature;BMP_pressure;BME280_temperature;BME280_humidity;BME280_pressure;Samples;Min_cycle;Max_cycle;Signal;HPM_P1;HPM_P2
2023/12/29 00:02:18;;;;;;;10.90;2.22;;;;;;;;;;4816514;29;20054;-79
2023/12/29 00:04:45;;;;;;;13.40;3.20;;;;;;;;;;4821248;29;20062;-80
2023/12/29 00:07:11;;;;;;;11.52;2.03;;;;;;;;;;4821844;29;20074;-79
2023/12/29 00:09:40;;;;;;;10.55;1.60;;;;;;;;;;4810368;29;20114;-79
2023/12/29 00:12:08;;;;;;;10.50;1.65;;;;;;;;;;4807854;29;20046;-78
2023/12/29 00:14:38;;;;;;;10.05;1.90;;;;;;;;;;4815123;29;20064;-79
2023/12/29 00:17:05;;;;;;;9.90;2.05;;;;;;;;;;4822283;29;20064;-79
2023/12/29 00:19:32;;;;;;;7.75;1.60;;;;;;;;;;4818661;29;20618;-79
2023/12/29 00:22:02;;;;;;;10.52;1.95;;;;;;;;;;4799297;29;20144;-80
2023/12/29 00:24:31;;;;;;;6.65;1.55;;;;;;;;;;4812782;29;20461;-80
2023/12/29 00:26:58;;;;;;;;;;;;;;;;;;4800052;29;20500;-80
2023/12/29 00:29:28;;;;;;;5.43;1.63;;;;;;;;;;4813999;29;19933;-79
2023/12/29 00:31:54;;;;;;;9.90;2.03;;;;;;;;;;4812055;29;20296;-79
2023/12/29 00:34:21;;;;;;;11.25;2.22;;;;;;;;;;4819961;29;20058;-79
2023/12/29 00:36:48;;;;;;;9.75;1.90;;;;;;;;;;4817794;29;20046;-79
2023/12/29 00:39:15;;;;;;;10.95;1.80;;;;;;;;;;4813652;29;20066;-79
2023/12/29 00:41:41;;;;;;;10.27;2.22;;;;;;;;;;4808905;29;20050;-79
2023/12/29 00:44:08;;;;;;;11.00;1.90;;;;;;;;;;4812594;29;20123;-79
2023/12/29 00:46:34;;;;;;;11.18;2.20;;;;;;;;;;4818438;29;20271;-80
2023/12/29 00:49:01;;;;;;;11.20;1.73;;;;;;;;;;4811578;29;20196;-80
2023/12/29 00:51:27;;;;;;;10.60;1.65;;;;;;;;;;4808433;29;20104;-80
2023/12/29 00:53:54;;;;;;;7.25;1.65;;;;;;;;;;4818433;29;20057;-80
2023/12/29 00:56:20;;;;;;;9.48;1.80;;;;;;;;;;4800885;29;20058;-79
2023/12/29 00:58:47;;;;;;;7.95;1.60;;;;;;;;;;4822975;29;20677;-79
2023/12/29 01:01:13;;;;;;;8.68;1.80;;;;;;;;;;4814000;29;20169;-80
2023/12/29 01:03:40;;;;;;;8.73;2.00;;;;;;;;;;4814345;29;20101;-80
2023/12/29 01:06:08;;;;;;;7.00;2.08;;;;;;;;;;4802344;29;20059;-80
2023/12/29 01:08:35;;;;;;;8.88;1.80;;;;;;;;;;4820417;29;20082;-79
2023/12/29 01:11:01;;;;;;;5.72;1.75;;;;;;;;;;4816790;29;20058;-80
2023/12/29 01:13:28;;;;;;;7.13;2.03;;;;;;;;;;4811294;29;20085;-79
2023/12/29 01:15:54;;;;;;;10.52;1.50;;;;;;;;;;4800261;29;20525;-80
2023/12/29 01:18:21;;;;;;;13.55;2.25;;;;;;;;;;4813903;29;20141;-80
2023/12/29 01:20:48;;;;;;;8.20;1.73;;;;;;;;;;4808810;29;20058;-80
2023/12/29 01:23:14;;;;;;;10.10;2.40;;;;;;;;;;4817963;29;20149;-80
2023/12/29 01:25:41;;;;;;;9.63;1.83;;;;;;;;;;4808684;29;20054;-77
2023/12/29 01:28:07;;;;;;;10.23;1.75;;;;;;;;;;4818942;29;20059;-78
2023/12/29 01:30:33;;;;;;;7.57;1.70;;;;;;;;;;4802926;29;20110;-79
2023/12/29 01:33:00;;;;;;;11.18;2.20;;;;;;;;;;4810743;29;20708;-79
2023/12/29 01:35:27;;;;;;;8.07;1.52;;;;;;;;;;4814980;29;20103;-78
2023/12/29 01:37:55;;;;;;;7.07;1.73;;;;;;;;;;4811844;29;20060;-79
2023/12/29 01:40:22;;;;;;;;;;;;;;;;;;4799431;29;20073;-79
2023/12/29 01:42:48;;;;;;;8.52;1.90;;;;;;;;;;4814908;29;19932;-78
2023/12/29 01:45:25;;;;;;;10.80;2.10;;;;;;;;;;4813044;29;20064;-78
2023/12/29 01:47:53;;;;;;;12.98;2.45;;;;;;;;;;4820136;29;20054;-78
2023/12/29 01:50:20;;;;;;;8.27;1.80;;;;;;;;;;4812057;29;20058;-78
2023/12/29 01:52:48;;;;;;;8.52;1.77;;;;;;;;;;4817280;29;20053;-78
2023/12/29 01:55:16;;;;;;;8.88;2.05;;;;;;;;;;4807199;29;20457;-79
2023/12/29 01:57:43;;;;;;;8.15;1.38;;;;;;;;;;4816058;29;20079;-79
2023/12/29 02:00:11;;;;;;;10.05;1.90;;;;;;;;;;4810634;29;20062;-78
2023/12/29 02:02:38;;;;;;;11.80;1.75;;;;;;;;;;4824963;29;20088;-79
2023/12/29 02:05:05;;;;;;;7.68;2.17;;;;;;;;;;4825626;29;20050;-77
2023/12/29 02:07:32;;;;;;;7.60;1.73;;;;;;;;;;4812461;29;20066;-78
2023/12/29 02:10:02;;;;;;;7.30;1.30;;;;;;;;;;4806744;29;20050;-77
2023/12/29 02:12:29;;;;;;;13.25;2.13;;;;;;;;;;4815617;29;20056;-78
2023/12/29 02:14:55;;;;;;;9.20;2.38;;;;;;;;;;4821551;29;20137;-78
2023/12/29 02:17:33;;;;;;;6.00;1.77;;;;;;;;;;4819821;29;20069;-79
2023/12/29 02:20:00;;;;;;;10.85;2.05;;;;;;;;;;4818443;29;20434;-78
2023/12/29 02:22:27;;;;;;;6.88;1.30;;;;;;;;;;4810210;29;20068;-78
2023/12/29 02:24:53;;;;;;;9.27;1.58;;;;;;;;;;4818711;29;20381;-78
2023/12/29 02:27:35;;;;;;;8.27;1.85;;;;;;;;;;4814812;29;20122;-78
2023/12/29 02:30:18;;;;;;;9.68;1.67;;;;;;;;;;4819260;29;20491;-78
2023/12/29 02:32:46;;;;;;;8.75;2.25;;;;;;;;;;4815799;29;20086;-78
2023/12/29 02:35:21;;;;;;;9.98;2.35;;;;;;;;;;4822691;29;20634;-78
2023/12/29 02:37:48;;;;;;;9.73;1.83;;;;;;;;;;4819464;29;20057;-78
2023/12/29 02:40:16;;;;;;;9.90;1.73;;;;;;;;;;4825431;29;20050;-78
2023/12/29 02:42:49;;;;;;;10.63;1.83;;;;;;;;;;4805643;29;20046;-78
2023/12/29 02:45:17;;;;;;;9.10;2.15;;;;;;;;;;4815431;29;20099;-77
2023/12/29 02:47:43;;;;;;;12.20;2.03;;;;;;;;;;4811087;29;20137;-78
2023/12/29 02:50:10;;;;;;;8.88;2.25;;;;;;;;;;4816375;29;20058;-78
2023/12/29 02:52:37;;;;;;;11.82;1.80;;;;;;;;;;4809022;29;20042;-78
2023/12/29 02:55:03;;;;;;;11.63;2.20;;;;;;;;;;4813529;29;20046;-78
2023/12/29 02:57:30;;;;;;;8.40;1.90;;;;;;;;;;4816027;29;20073;-77
2023/12/29 02:59:56;;;;;;;8.80;1.92;;;;;;;;;;4811758;29;20104;-78
2023/12/29 03:02:23;;;;;;;13.07;1.90;;;;;;;;;;4819914;29;20115;-78
2023/12/29 03:04:50;;;;;;;7.88;1.92;;;;;;;;;;4817377;29;20107;-78
2023/12/29 03:07:16;;;;;;;9.15;1.55;;;;;;;;;;4811890;29;20069;-78
2023/12/29 03:09:43;;;;;;;8.77;1.85;;;;;;;;;;4809402;29;20054;-78
2023/12/29 03:12:09;;;;;;;9.38;1.75;;;;;;;;;;4823245;29;20554;-77
2023/12/29 03:14:36;;;;;;;14.10;2.67;;;;;;;;;;4818496;29;20148;-75
2023/12/29 03:17:04;;;;;;;;;;;;;;;;;;4812717;29;20515;-74
2023/12/29 03:19:31;;;;;;;12.82;2.08;;;;;;;;;;4816281;29;19928;-74
2023/12/29 03:21:58;;;;;;;10.80;2.15;;;;;;;;;;4821975;29;20518;-75
2023/12/29 03:24:24;;;;;;;8.18;1.58;;;;;;;;;;4819273;29;20058;-74
2023/12/29 03:26:50;;;;;;;10.10;1.70;;;;;;;;;;4815581;29;20998;-74
2023/12/29 03:29:17;;;;;;;10.40;1.88;;;;;;;;;;4813127;29;20393;-74
2023/12/29 03:31:44;;;;;;;8.73;1.88;;;;;;;;;;4816295;29;20148;-75
2023/12/29 03:34:10;;;;;;;8.63;2.00;;;;;;;;;;4816677;29;20089;-75
2023/12/29 03:36:37;;;;;;;9.98;2.10;;;;;;;;;;4814833;29;20061;-75
2023/12/29 03:39:04;;;;;;;8.73;1.75;;;;;;;;;;4797497;29;20050;-74
2023/12/29 03:41:30;;;;;;;9.73;1.83;;;;;;;;;;4813151;29;20498;-74
2023/12/29 03:43:57;;;;;;;12.70;2.10;;;;;;;;;;4825820;29;20068;-74
2023/12/29 03:46:23;;;;;;;13.10;2.00;;;;;;;;;;4811909;29;20053;-74
2023/12/29 03:48:50;;;;;;;10.50;1.88;;;;;;;;;;4816391;29;21043;-74
2023/12/29 03:51:17;;;;;;;14.20;1.88;;;;;;;;;;4809925;29;20077;-76
2023/12/29 03:53:44;;;;;;;21.67;2.63;;;;;;;;;;4822391;29;20496;-74
2023/12/29 03:56:18;;;;;;;8.65;1.75;;;;;;;;;;4810146;29;20092;-74
2023/12/29 03:58:45;;;;;;;9.02;1.90;;;;;;;;;;4796130;29;20095;-74
2023/12/29 04:01:12;;;;;;;14.07;2.42;;;;;;;;;;4814826;29;20059;-75
2023/12/29 04:03:39;;;;;;;9.93;2.25;;;;;;;;;;4814848;29;20829;-76
2023/12/29 04:06:06;;;;;;;14.93;2.30;;;;;;;;;;4815572;29;20608;-74
2023/12/29 04:08:35;;;;;;;11.20;1.75;;;;;;;;;;4817818;29;20619;-74
2023/12/29 04:11:03;;;;;;;15.60;2.53;;;;;;;;;;4820901;29;20053;-74
2023/12/29 04:13:29;;;;;;;10.70;2.60;;;;;;;;;;4815236;29;20062;-74
2023/12/29 04:15:56;;;;;;;10.63;2.10;;;;;;;;;;4822623;29;20166;-73
2023/12/29 04:18:23;;;;;;;9.95;1.77;;;;;;;;;;4823679;29;20053;-75
2023/12/29 04:20:50;;;;;;;9.52;1.95;;;;;;;;;;4821391;29;20057;-77
2023/12/29 04:23:16;;;;;;;16.42;2.28;;;;;;;;;;4820438;29;20149;-76
2023/12/29 04:25:43;;;;;;;11.95;1.85;;;;;;;;;;4823730;29;21361;-78
2023/12/29 04:28:09;;;;;;;12.20;2.13;;;;;;;;;;4815487;29;20413;-78
2023/12/29 04:30:36;;;;;;;14.85;2.38;;;;;;;;;;4820976;29;20083;-78
2023/12/29 04:33:03;;;;;;;17.27;3.08;;;;;;;;;;4805348;29;20055;-79
2023/12/29 04:35:30;;;;;;;10.18;2.00;;;;;;;;;;4812506;29;20688;-78
2023/12/29 04:37:56;;;;;;;12.80;2.85;;;;;;;;;;4820378;29;20530;-78
2023/12/29 04:40:23;;;;;;;17.67;2.78;;;;;;;;;;4808760;29;20050;-79
2023/12/29 04:42:49;;;;;;;10.63;2.42;;;;;;;;;;4829064;29;20146;-78
2023/12/29 04:45:16;;;;;;;12.23;2.28;;;;;;;;;;4817527;29;20156;-78
2023/12/29 04:47:42;;;;;;;12.57;2.28;;;;;;;;;;4815186;29;20350;-79
2023/12/29 04:50:09;;;;;;;13.80;2.70;;;;;;;;;;4829235;29;20068;-79
2023/12/29 04:52:35;;;;;;;12.93;2.20;;;;;;;;;;4804268;29;20472;-78
2023/12/29 04:55:02;;;;;;;15.55;2.50;;;;;;;;;;4802659;29;20062;-79
2023/12/29 04:57:28;;;;;;;12.82;2.03;;;;;;;;;;4797121;29;20054;-79
2023/12/29 04:59:55;;;;;;;14.60;3.00;;;;;;;;;;4815849;29;20107;-79
2023/12/29 05:02:21;;;;;;;16.65;2.65;;;;;;;;;;4828926;29;20058;-79
2023/12/29 05:04:48;;;;;;;9.57;2.05;;;;;;;;;;4812855;29;20054;-78
2023/12/29 05:07:15;;;;;;;17.17;2.72;;;;;;;;;;4815313;29;20105;-79
2023/12/29 05:09:41;;;;;;;16.25;2.55;;;;;;;;;;4814637;29;20195;-79
2023/12/29 05:12:08;;;;;;;10.88;2.13;;;;;;;;;;4815851;29;20081;-78
2023/12/29 05:14:34;;;;;;;12.57;2.60;;;;;;;;;;4817754;29;20074;-79
2023/12/29 05:17:00;;;;;;;15.27;2.95;;;;;;;;;;4815246;29;20110;-79
2023/12/29 05:19:27;;;;;;;12.88;2.97;;;;;;;;;;4806020;29;20068;-79
2023/12/29 05:21:53;;;;;;;17.58;2.30;;;;;;;;;;4799413;29;20054;-79
2023/12/29 05:24:20;;;;;;;13.98;2.30;;;;;;;;;;4819604;29;20123;-77
2023/12/29 05:26:47;;;;;;;14.45;2.63;;;;;;;;;;4800813;29;20062;-77
2023/12/29 05:29:13;;;;;;;13.48;2.15;;;;;;;;;;4810711;29;20058;-78
2023/12/29 05:31:40;;;;;;;10.82;1.95;;;;;;;;;;4819146;29;20146;-78
2023/12/29 05:34:07;;;;;;;12.02;2.15;;;;;;;;;;4816169;29;20058;-77
2023/12/29 05:36:37;;;;;;;13.88;2.67;;;;;;;;;;4819251;29;20072;-77
2023/12/29 05:39:03;;;;;;;12.43;2.20;;;;;;;;;;4818263;29;20054;-78
2023/12/29 05:41:30;;;;;;;13.32;2.63;;;;;;;;;;4811183;29;20058;-78
2023/12/29 05:43:57;;;;;;;15.52;2.33;;;;;;;;;;4813070;29;20054;-77
2023/12/29 05:46:24;;;;;;;16.75;2.55;;;;;;;;;;4813451;29;20070;-77
2023/12/29 05:48:52;;;;;;;17.58;2.95;;;;;;;;;;4820556;29;20487;-77
2023/12/29 05:51:19;;;;;;;15.70;2.70;;;;;;;;;;4812047;29;20105;-77
2023/12/29 05:53:45;;;;;;;17.60;3.08;;;;;;;;;;4802090;29;20050;-77
2023/12/29 05:56:12;;;;;;;16.40;2.30;;;;;;;;;;4823797;29;20054;-78
2023/12/29 05:58:45;;;;;;;13.88;2.70;;;;;;;;;;4797525;29;20196;-76
2023/12/29 06:01:11;;;;;;;15.13;2.17;;;;;;;;;;4818468;29;20128;-77
2023/12/29 06:03:38;;;;;;;15.07;2.55;;;;;;;;;;4796309;29;20052;-78
2023/12/29 06:06:05;;;;;;;11.48;2.65;;;;;;;;;;4817869;29;20058;-78
2023/12/29 06:08:31;;;;;;;12.55;2.35;;;;;;;;;;4818881;29;20119;-77
2023/12/29 06:10:58;;;;;;;10.93;2.25;;;;;;;;;;4817948;29;20056;-77
2023/12/29 06:13:24;;;;;;;9.10;2.45;;;;;;;;;;4802742;29;20110;-78
2023/12/29 06:15:51;;;;;;;15.13;2.30;;;;;;;;;;4813815;29;20082;-78
2023/12/29 06:18:17;;;;;;;17.17;2.85;;;;;;;;;;4815670;29;20542;-78
2023/12/29 06:20:44;;;;;;;17.90;2.63;;;;;;;;;;4807873;29;20357;-77
2023/12/29 06:23:11;;;;;;;15.65;2.25;;;;;;;;;;4819310;29;20066;-78
2023/12/29 06:25:39;;;;;;;10.88;2.40;;;;;;;;;;4812121;29;20089;-78
2023/12/29 06:28:06;;;;;;;;;;;;;;;;;;4799061;29;20246;-78
2023/12/29 06:30:33;;;;;;;16.27;2.30;;;;;;;;;;4818447;29;21325;-78
2023/12/29 06:32:59;;;;;;;10.00;2.53;;;;;;;;;;4810628;29;20061;-79
2023/12/29 06:35:26;;;;;;;13.70;2.20;;;;;;;;;;4817436;29;20060;-77
2023/12/29 06:37:53;;;;;;;9.27;1.77;;;;;;;;;;4816416;29;20102;-79
2023/12/29 06:40:19;;;;;;;12.32;1.90;;;;;;;;;;4815495;29;20058;-78
2023/12/29 06:42:46;;;;;;;13.93;2.13;;;;;;;;;;4815634;29;20046;-77
2023/12/29 06:45:12;;;;;;;7.68;1.77;;;;;;;;;;4812271;29;20050;-79
2023/12/29 06:47:38;;;;;;;13.20;2.35;;;;;;;;;;4813639;29;20508;-78
2023/12/29 06:50:06;;;;;;;13.02;1.88;;;;;;;;;;4820433;29;20523;-78
2023/12/29 06:52:36;;;;;;;9.43;1.63;;;;;;;;;;4815581;29;20115;-79
2023/12/29 06:55:03;;;;;;;6.32;1.58;;;;;;;;;;4821724;29;20123;-78
2023/12/29 06:57:30;;;;;;;9.95;1.70;;;;;;;;;;4812901;29;20103;-78
2023/12/29 06:59:56;;;;;;;14.77;3.22;;;;;;;;;;4816089;29;20062;-78
2023/12/29 07:02:23;;;;;;;11.80;2.05;;;;;;;;;;4807712;29;20054;-78
2023/12/29 07:04:49;;;;;;;8.82;1.85;;;;;;;;;;4813803;29;20050;-78
2023/12/29 07:07:16;;;;;;;10.85;1.88;;;;;;;;;;4812626;29;20407;-78
2023/12/29 07:09:42;;;;;;;10.02;2.20;;;;;;;;;;4812020;29;20137;-79
2023/12/29 07:12:09;;;;;;;5.55;1.60;;;;;;;;;;4818083;29;20538;-79
2023/12/29 07:14:36;;;;;;;11.02;2.15;;;;;;;;;;4795132;29;20092;-79
2023/12/29 07:17:03;;;;;;;9.88;1.77;;;;;;;;;;4812626;29;20059;-79
2023/12/29 07:19:36;;;;;;;10.13;1.70;;;;;;;;;;4814075;29;20085;-79
2023/12/29 07:22:04;;;;;;;8.45;1.83;;;;;;;;;;4810717;29;20069;-79
2023/12/29 07:24:32;;;;;;;7.07;1.55;;;;;;;;;;4801403;29;20807;-79
2023/12/29 07:26:58;;;;;;;8.55;1.90;;;;;;;;;;4809780;29;20069;-77
2023/12/29 07:29:25;;;;;;;10.75;2.40;;;;;;;;;;4805675;29;20047;-77
2023/12/29 07:31:51;;;;;;;8.23;2.22;;;;;;;;;;4810689;29;20050;-78
2023/12/29 07:34:18;;;;;;;11.80;2.22;;;;;;;;;;4814193;29;20142;-81
2023/12/29 07:36:45;;;;;;;8.75;2.20;;;;;;;;;;4820318;29;20396;-80
2023/12/29 07:39:11;;;;;;;8.85;1.90;;;;;;;;;;4823562;29;20066;-77
2023/12/29 07:41:42;;;;;;;8.15;2.40;;;;;;;;;;4820811;29;20148;-78
2023/12/29 07:44:14;;;;;;;10.98;2.05;;;;;;;;;;4808582;29;20848;-78
2023/12/29 07:46:41;;;;;;;14.25;2.40;;;;;;;;;;4817217;29;20082;-79
2023/12/29 07:49:07;;;;;;;8.73;2.30;;;;;;;;;;4821734;29;20058;-78
2023/12/29 07:51:34;;;;;;;8.10;2.05;;;;;;;;;;4815904;29;20079;-79
2023/12/29 07:54:01;;;;;;;14.57;2.80;;;;;;;;;;4819963;29;20073;-80
2023/12/29 07:56:27;;;;;;;11.57;2.20;;;;;;;;;;4803342;29;20057;-78
2023/12/29 07:58:54;;;;;;;8.65;2.25;;;;;;;;;;4815602;29;20046;-79
2023/12/29 08:01:20;;;;;;;12.10;2.22;;;;;;;;;;4817695;29;20486;-79
2023/12/29 08:03:47;;;;;;;6.68;1.65;;;;;;;;;;4807943;29;20127;-78
2023/12/29 08:06:14;;;;;;;6.80;1.77;;;;;;;;;;4816343;29;20050;-79
2023/12/29 08:08:41;;;;;;;10.55;1.83;;;;;;;;;;4814602;29;20164;-78
2023/12/29 08:11:15;;;;;;;9.02;1.80;;;;;;;;;;4820146;29;20090;-79
2023/12/29 08:13:43;;;;;;;8.43;1.90;;;;;;;;;;4812332;29;20446;-81
2023/12/29 08:16:09;;;;;;;8.73;2.28;;;;;;;;;;4800749;29;20054;-80
2023/12/29 08:18:36;;;;;;;8.75;1.88;;;;;;;;;;4804829;29;20599;-80
2023/12/29 08:21:03;;;;;;;10.82;1.85;;;;;;;;;;4795558;29;20210;-79
2023/12/29 08:23:29;;;;;;;7.78;1.58;;;;;;;;;;4821373;29;20058;-78
2023/12/29 08:25:56;;;;;;;6.55;1.63;;;;;;;;;;4813263;29;20090;-79
2023/12/29 08:28:23;;;;;;;7.57;1.77;;;;;;;;;;4805837;29;20055;-78
2023/12/29 08:30:50;;;;;;;11.27;2.10;;;;;;;;;;4820148;29;20393;-78
2023/12/29 08:33:16;;;;;;;10.27;1.83;;;;;;;;;;4812658;29;20535;-78
2023/12/29 08:35:44;;;;;;;9.02;1.70;;;;;;;;;;4817571;29;20086;-77
2023/12/29 08:38:10;;;;;;;9.75;1.80;;;;;;;;;;4804686;29;20404;-79
2023/12/29 08:40:37;;;;;;;9.77;1.98;;;;;;;;;;4815291;29;20086;-78
2023/12/29 08:43:04;;;;;;;7.47;2.13;;;;;;;;;;4815611;29;20059;-78
2023/12/29 08:45:30;;;;;;;8.38;1.58;;;;;;;;;;4814800;29;20060;-78
2023/12/29 08:47:57;;;;;;;8.93;2.00;;;;;;;;;;4816519;29;20572;-79
2023/12/29 08:50:24;;;;;;;8.68;1.30;;;;;;;;;;4814677;29;20059;-79
2023/12/29 08:52:50;;;;;;;8.13;1.73;;;;;;;;;;4816300;29;20062;-79
2023/12/29 08:55:17;;;;;;;6.18;1.60;;;;;;;;;;4796123;29;20655;-79
2023/12/29 08:57:45;;;;;;;6.03;1.45;;;;;;;;;;4818828;29;20065;-78
2023/12/29 09:00:15;;;;;;;5.75;1.75;;;;;;;;;;4820964;29;20484;-79
2023/12/29 09:02:41;;;;;;;4.50;1.30;;;;;;;;;;4814083;29;20058;-80
2023/12/29 09:05:08;;;;;;;5.95;1.63;;;;;;;;;;4819590;29;20141;-80
2023/12/29 09:07:37;;;;;;;4.05;1.52;;;;;;;;;;4802939;29;20053;-82
2023/12/29 09:10:07;;;;;;;4.90;1.33;;;;;;;;;;4818566;29;20046;-79
2023/12/29 09:12:34;;;;;;;6.18;1.50;;;;;;;;;;4822667;29;20064;-78
2023/12/29 09:15:01;;;;;;;6.13;1.40;;;;;;;;;;4813499;29;20067;-80
2023/12/29 09:17:27;;;;;;;6.25;1.00;;;;;;;;;;4800415;29;20051;-80
2023/12/29 09:19:54;;;;;;;4.97;1.48;;;;;;;;;;4810423;29;20047;-79
2023/12/29 09:22:32;;;;;;;5.82;1.40;;;;;;;;;;4815786;29;20122;-78
2023/12/29 09:24:59;;;;;;;5.80;1.63;;;;;;;;;;4804583;29;20137;-79
2023/12/29 09:27:25;;;;;;;6.07;1.30;;;;;;;;;;4801703;29;20218;-78
2023/12/29 09:29:52;;;;;;;6.60;1.08;;;;;;;;;;4818900;29;20135;-77
2023/12/29 09:32:19;;;;;;;4.78;1.20;;;;;;;;;;4814187;29;20120;-79
2023/12/29 09:34:45;;;;;;;7.70;1.20;;;;;;;;;;4815498;29;20077;-81
2023/12/29 09:37:12;;;;;;;5.53;1.38;;;;;;;;;;4811092;29;20068;-79
2023/12/29 09:39:38;;;;;;;6.53;1.23;;;;;;;;;;4819270;29;20054;-79
2023/12/29 09:42:05;;;;;;;5.63;1.48;;;;;;;;;;4813067;29;20054;-72
2023/12/29 09:44:31;;;;;;;7.30;1.30;;;;;;;;;;4817602;29;20082;-78
2023/12/29 09:47:00;;;;;;;3.75;1.00;;;;;;;;;;4818863;29;20826;-78
2023/12/29 09:49:30;;;;;;;8.40;1.70;;;;;;;;;;4815076;29;20085;-79
2023/12/29 09:51:58;;;;;;;6.60;2.05;;;;;;;;;;4799555;29;20058;-77
2023/12/29 09:54:24;;;;;;;4.40;1.10;;;;;;;;;;4812848;29;20066;-78
2023/12/29 09:56:51;;;;;;;4.32;1.10;;;;;;;;;;4816679;29;20080;-76
2023/12/29 09:59:17;;;;;;;6.22;1.20;;;;;;;;;;4819735;29;20479;-79
2023/12/29 10:01:45;;;;;;;5.05;1.17;;;;;;;;;;4810549;29;20049;-77
2023/12/29 10:04:11;;;;;;;3.20;1.13;;;;;;;;;;4812906;29;20086;-77
2023/12/29 10:06:40;;;;;;;3.90;1.05;;;;;;;;;;4804494;29;20062;-78
2023/12/29 10:09:10;;;;;;;3.38;1.20;;;;;;;;;;4817832;29;20079;-77
2023/12/29 10:11:37;;;;;;;2.97;1.20;;;;;;;;;;4815303;29;20077;-77
2023/12/29 10:14:16;;;;;;;5.85;1.30;;;;;;;;;;4813052;29;20650;-77
2023/12/29 10:16:44;;;;;;;4.18;1.30;;;;;;;;;;4815032;29;20141;-77
2023/12/29 10:19:11;;;;;;;4.45;1.30;;;;;;;;;;4808399;29;20162;-76
2023/12/29 10:21:43;;;;;;;3.33;1.10;;;;;;;;;;4797522;29;20050;-77
2023/12/29 10:24:16;;;;;;;4.85;1.33;;;;;;;;;;4812529;29;20435;-76
2023/12/29 10:26:43;;;;;;;1.45;1.00;;;;;;;;;;4812505;29;20062;-75
2023/12/29 10:29:11;;;;;;;2.27;1.33;;;;;;;;;;4813752;29;20138;-76
2023/12/29 10:31:38;;;;;;;4.95;1.30;;;;;;;;;;4808522;29;20294;-76
2023/12/29 10:34:17;;;;;;;3.63;1.10;;;;;;;;;;4814423;29;20673;-76
2023/12/29 10:36:48;;;;;;;1.10;0.93;;;;;;;;;;4799130;29;20173;-76
2023/12/29 10:39:15;;;;;;;3.47;1.20;;;;;;;;;;4813370;29;20058;-76
2023/12/29 10:41:41;;;;;;;1.45;0.80;;;;;;;;;;4812642;29;20564;-76
2023/12/29 10:44:08;;;;;;;2.53;1.00;;;;;;;;;;4816050;29;20146;-76
2023/12/29 10:46:35;;;;;;;3.35;1.42;;;;;;;;;;4797371;29;20153;-75
2023/12/29 10:49:09;;;;;;;2.17;1.23;;;;;;;;;;4808842;29;20134;-76
2023/12/29 10:51:37;;;;;;;4.88;1.30;;;;;;;;;;4820667;29;20532;-76
2023/12/29 10:54:03;;;;;;;4.28;1.20;;;;;;;;;;4794909;29;20142;-76
2023/12/29 10:56:31;;;;;;;2.80;0.90;;;;;;;;;;4816678;29;20058;-75
2023/12/29 10:59:02;;;;;;;4.75;1.20;;;;;;;;;;4816991;29;20783;-75
2023/12/29 11:01:29;;;;;;;3.72;1.17;;;;;;;;;;4807299;29;20067;-76
2023/12/29 11:04:03;;;;;;;3.95;1.00;;;;;;;;;;4817295;29;20050;-78
2023/12/29 11:06:39;;;;;;;6.63;1.70;;;;;;;;;;4795960;29;20054;-76
2023/12/29 11:09:06;;;;;;;3.80;1.42;;;;;;;;;;4816948;29;20046;-75
2023/12/29 11:11:34;;;;;;;1.77;0.95;;;;;;;;;;4811820;29;20195;-77
2023/12/29 11:14:01;;;;;;;2.83;1.00;;;;;;;;;;4811777;29;20515;-76
2023/12/29 11:16:29;;;;;;;3.42;1.02;;;;;;;;;;4813470;29;20707;-77
2023/12/29 11:18:58;;;;;;;3.78;1.30;;;;;;;;;;4810151;29;20050;-77
2023/12/29 11:21:26;;;;;;;2.60;1.30;;;;;;;;;;4817466;29;20054;-77
2023/12/29 11:23:52;;;;;;;6.30;1.10;;;;;;;;;;4811574;29;20153;-76
2023/12/29 11:26:19;;;;;;;3.05;1.30;;;;;;;;;;4815756;29;20301;-77
2023/12/29 11:28:48;;;;;;;3.92;1.30;;;;;;;;;;4811265;29;21299;-76
2023/12/29 11:31:16;;;;;;;2.65;1.30;;;;;;;;;;4808047;29;20114;-77
2023/12/29 11:33:46;;;;;;;2.53;1.10;;;;;;;;;;4813930;29;20801;-77
2023/12/29 11:36:16;;;;;;;6.13;1.45;;;;;;;;;;4816301;29;20054;-76
2023/12/29 11:39:20;;;;;;;2.38;1.30;;;;;;;;;;4822052;29;20082;-77
2023/12/29 11:41:56;;;;;;;4.25;1.80;;;;;;;;;;4811758;29;20116;-76
2023/12/29 11:44:27;;;;;;;3.40;1.33;;;;;;;;;;4819379;29;20057;-77
2023/12/29 11:46:54;;;;;;;6.38;1.48;;;;;;;;;;4817146;29;20137;-76
2023/12/29 11:49:20;;;;;;;4.53;1.17;;;;;;;;;;4821722;29;20412;-78
2023/12/29 11:51:49;;;;;;;6.95;1.35;;;;;;;;;;4822395;29;20126;-77
2023/12/29 11:54:23;;;;;;;4.45;1.20;;;;;;;;;;4815755;29;20250;-78
2023/12/29 11:56:49;;;;;;;4.78;1.52;;;;;;;;;;4817846;29;20070;-78
2023/12/29 11:59:19;;;;;;;4.05;1.27;;;;;;;;;;4814293;29;20219;-75
2023/12/29 12:01:47;;;;;;;7.45;1.30;;;;;;;;;;4805362;29;20059;-76
2023/12/29 12:04:32;;;;;;;4.55;1.42;;;;;;;;;;4819150;29;20473;-75
2023/12/29 12:06:58;;;;;;;9.35;1.58;;;;;;;;;;4815657;29;20062;-76
2023/12/29 12:09:25;;;;;;;4.80;1.40;;;;;;;;;;4820323;29;20104;-75
2023/12/29 12:11:52;;;;;;;5.80;1.45;;;;;;;;;;4811779;29;20054;-79
2023/12/29 12:14:37;;;;;;;5.45;1.20;;;;;;;;;;4806222;29;20058;-78
2023/12/29 12:17:04;;;;;;;6.00;1.30;;;;;;;;;;4815996;29;20138;-79
2023/12/29 12:19:32;;;;;;;12.02;2.35;;;;;;;;;;4810166;29;20062;-79
2023/12/29 12:21:59;;;;;;;11.93;1.75;;;;;;;;;;4803070;29;20050;-77
2023/12/29 12:24:27;;;;;;;10.82;1.75;;;;;;;;;;4819766;29;20497;-78
2023/12/29 12:26:56;;;;;;;6.93;1.40;;;;;;;;;;4820872;29;20058;-76
2023/12/29 12:29:23;;;;;;;9.18;1.90;;;;;;;;;;4803277;29;20154;-76
2023/12/29 12:31:52;;;;;;;9.10;1.65;;;;;;;;;;4824795;29;20766;-78
2023/12/29 12:34:19;;;;;;;7.25;1.70;;;;;;;;;;4819066;29;20133;-79
2023/12/29 12:36:50;;;;;;;12.38;2.08;;;;;;;;;;4824385;29;20459;-77
2023/12/29 12:39:17;;;;;;;7.20;1.35;;;;;;;;;;4820514;29;20147;-78
2023/12/29 12:41:43;;;;;;;6.97;1.40;;;;;;;;;;4817489;29;20055;-77
2023/12/29 12:44:13;;;;;;;9.43;1.45;;;;;;;;;;4823156;29;20054;-77
2023/12/29 12:46:51;;;;;;;11.85;1.85;;;;;;;;;;4819489;29;20141;-78
2023/12/29 12:49:19;;;;;;;4.57;1.10;;;;;;;;;;4829865;29;20601;-76
2023/12/29 12:51:45;;;;;;;9.63;1.85;;;;;;;;;;4822413;29;20050;-81
2023/12/29 12:54:13;;;;;;;7.60;2.13;;;;;;;;;;4818833;29;20074;-79
2023/12/29 12:56:43;;;;;;;10.40;1.55;;;;;;;;;;4810156;29;20059;-78
2023/12/29 12:59:09;;;;;;;9.20;1.40;;;;;;;;;;4820164;29;20070;-79
2023/12/29 13:01:37;;;;;;;8.57;1.70;;;;;;;;;;4810274;29;20450;-80
2023/12/29 13:04:05;;;;;;;10.68;1.73;;;;;;;;;;4820005;29;20519;-80
2023/12/29 13:06:32;;;;;;;8.98;1.63;;;;;;;;;;4822018;29;20485;-81
2023/12/29 13:09:05;;;;;;;7.68;1.30;;;;;;;;;;4805608;29;20565;-80
2023/12/29 13:11:31;;;;;;;11.45;1.80;;;;;;;;;;4800683;29;20054;-79
2023/12/29 13:13:58;;;;;;;10.55;1.45;;;;;;;;;;4810996;29;20077;-80
2023/12/29 13:16:32;;;;;;;8.27;1.45;;;;;;;;;;4797318;29;20484;-78
2023/12/29 13:19:14;;;;;;;10.55;1.55;;;;;;;;;;4818512;29;20077;-77
2023/12/29 13:21:41;;;;;;;9.93;1.88;;;;;;;;;;4803454;29;20054;-76
2023/12/29 13:24:07;;;;;;;7.63;1.52;;;;;;;;;;4804416;29;20053;-77
2023/12/29 13:26:34;;;;;;;7.80;1.55;;;;;;;;;;4821187;29;20488;-78
2023/12/29 13:29:00;;;;;;;13.50;1.98;;;;;;;;;;4817726;29;20141;-78
2023/12/29 13:31:27;;;;;;;7.28;1.52;;;;;;;;;;4825110;29;20090;-78
2023/12/29 13:34:03;;;;;;;8.50;1.88;;;;;;;;;;4816208;29;21005;-79
2023/12/29 13:36:41;;;;;;;11.93;2.08;;;;;;;;;;4822887;29;20047;-79
2023/12/29 13:39:27;;;;;;;11.27;1.65;;;;;;;;;;4803300;29;20058;-78
2023/12/29 13:42:00;;;;;;;10.32;1.88;;;;;;;;;;4804841;29;20115;-77
2023/12/29 13:44:28;;;;;;;11.07;1.90;;;;;;;;;;4819886;29;20119;-78
2023/12/29 13:46:55;;;;;;;11.80;1.98;;;;;;;;;;4812111;29;20065;-77
2023/12/29 13:49:21;;;;;;;11.45;1.83;;;;;;;;;;4822976;29;20086;-78
2023/12/29 13:51:48;;;;;;;6.75;1.67;;;;;;;;;;4810728;29;20470;-77
2023/12/29 13:54:14;;;;;;;10.82;1.80;;;;;;;;;;4819175;29;20074;-78
2023/12/29 13:56:50;;;;;;;7.47;1.70;;;;;;;;;;4823644;29;20445;-78
2023/12/29 13:59:17;;;;;;;12.98;2.08;;;;;;;;;;4817849;29;20066;-76
2023/12/29 14:01:43;;;;;;;10.60;2.65;;;;;;;;;;4821144;29;20062;-76
2023/12/29 14:04:11;;;;;;;12.63;2.05;;;;;;;;;;4817403;29;20122;-76
2023/12/29 14:06:38;;;;;;;7.93;1.88;;;;;;;;;;4822369;29;20114;-77
2023/12/29 14:09:14;;;;;;;5.53;1.67;;;;;;;;;;4818246;29;20058;-77
2023/12/29 14:11:47;;;;;;;5.95;1.63;;;;;;;;;;4822857;29;20114;-76
2023/12/29 14:14:14;;;;;;;10.23;2.10;;;;;;;;;;4820087;29;20093;-78
2023/12/29 14:16:40;;;;;;;9.93;2.00;;;;;;;;;;4816115;29;20058;-76
2023/12/29 14:19:07;;;;;;;7.60;1.92;;;;;;;;;;4822830;29;20058;-75
2023/12/29 14:21:33;;;;;;;12.68;2.65;;;;;;;;;;4815653;29;20141;-75
2023/12/29 14:24:10;;;;;;;6.68;2.20;;;;;;;;;;4822129;29;20142;-76
2023/12/29 14:26:37;;;;;;;9.38;1.80;;;;;;;;;;4797188;29;20137;-75
2023/12/29 14:29:05;;;;;;;9.73;1.75;;;;;;;;;;4818928;29;20097;-75
2023/12/29 14:31:34;;;;;;;6.82;1.70;;;;;;;;;;4822007;29;20054;-74
2023/12/29 14:34:01;;;;;;;11.68;2.50;;;;;;;;;;4817071;29;20054;-75
2023/12/29 14:36:27;;;;;;;10.05;2.15;;;;;;;;;;4821003;29;20562;-76
2023/12/29 14:38:54;;;;;;;8.07;2.33;;;;;;;;;;4813727;29;20152;-77
2023/12/29 14:41:20;;;;;;;9.57;2.60;;;;;;;;;;4817992;29;20138;-75
2023/12/29 14:43:46;;;;;;;11.02;2.70;;;;;;;;;;4806013;29;20050;-75